Terminal Aerodrome Forecast
Issued by NWS Wilmington, OH

Current Version | Previous Version | Text Only | Print | Product List | Glossary Off
Versions: 1 2 3 4 5 6 7 8 9 10 11 12 13 14 15 16 17 18 19 20 21 22

000
FTUS41 KILN 160900 AAA
TAFILN
TAF AMD
KILN 160934Z 1610/1706 36004KT 5SM BR OVC025
      TEMPO 1610/1613 OVC010
     FM161500 01005KT P6SM OVC025
     FM161900 02005KT P6SM BKN025
     FM162100 VRB03KT P6SM SCT035
     FM170000 VRB02KT P6SM SKC=

USA.gov is the U.S. government's official web portal to all federal, state and local government web resources and services.